createdAt,value
2023-09-04T00:01:57.839Z,6.28
2023-09-04T00:04:24.462Z,7.00
2023-09-04T00:06:51.072Z,6.50
2023-09-04T00:09:17.646Z,6.13
2023-09-04T00:11:44.262Z,5.00
2023-09-04T00:14:11.186Z,4.68
2023-09-04T00:16:38.148Z,4.10
2023-09-04T00:19:04.957Z,3.80
2023-09-04T00:21:31.567Z,4.18
2023-09-04T00:23:58.157Z,3.58
2023-09-04T00:26:24.871Z,3.47
2023-09-04T00:28:51.550Z,3.83
2023-09-04T00:31:18.130Z,2.83
2023-09-04T00:33:44.844Z,3.55
2023-09-04T00:36:11.418Z,3.80
2023-09-04T00:38:37.994Z,3.77
2023-09-04T00:41:04.988Z,4.22
2023-09-04T00:43:37.682Z,4.35
2023-09-04T00:46:05.676Z,4.10
2023-09-04T00:48:34.631Z,4.82
2023-09-04T00:51:02.451Z,5.43
2023-09-04T00:53:30.763Z,5.07
2023-09-04T00:55:59.646Z,4.93
2023-09-04T00:58:26.378Z,3.85
2023-09-04T01:00:53.624Z,3.25
2023-09-04T01:05:47.842Z,3.83
2023-09-04T01:08:15.652Z,3.88
2023-09-04T01:10:53.380Z,3.83
2023-09-04T01:13:30.104Z,3.63
2023-09-04T01:15:58.083Z,3.42
2023-09-04T01:18:26.008Z,3.45
2023-09-04T01:21:06.223Z,3.13
2023-09-04T01:23:33.795Z,3.53
2023-09-04T01:26:16.030Z,3.42
2023-09-04T01:28:45.464Z,3.40
2023-09-04T01:31:19.301Z,3.53
2023-09-04T01:33:52.395Z,3.65
2023-09-04T01:36:20.722Z,3.42
2023-09-04T01:38:47.951Z,3.70
2023-09-04T01:41:14.623Z,3.53
2023-09-04T01:43:41.278Z,3.60
2023-09-04T01:46:07.973Z,3.60
2023-09-04T01:48:35.642Z,3.40
2023-09-04T01:51:02.477Z,3.67
2023-09-04T01:53:29.116Z,3.72
2023-09-04T01:55:55.742Z,3.53
2023-09-04T01:58:22.553Z,3.40
2023-09-04T02:00:49.395Z,3.58
2023-09-04T02:03:16.138Z,3.40
2023-09-04T02:05:43.965Z,3.40
2023-09-04T02:08:10.691Z,3.80
2023-09-04T02:10:37.705Z,3.85
2023-09-04T02:13:04.537Z,3.63
2023-09-04T02:15:31.716Z,3.95
2023-09-04T02:18:03.437Z,3.80
2023-09-04T02:20:31.267Z,3.90
2023-09-04T02:22:58.716Z,4.53
2023-09-04T02:25:26.072Z,3.80
2023-09-04T02:30:19.699Z,3.70
2023-09-04T02:32:46.781Z,3.60
2023-09-04T02:35:13.706Z,4.10
2023-09-04T02:37:41.898Z,3.70
2023-09-04T02:40:09.008Z,4.00
2023-09-04T02:42:35.619Z,4.10
2023-09-04T02:45:02.643Z,4.15
2023-09-04T02:47:29.246Z,3.92
2023-09-04T02:49:56.896Z,4.03
2023-09-04T02:52:23.742Z,4.10
2023-09-04T02:54:50.431Z,4.22
2023-09-04T02:57:17.058Z,3.92
2023-09-04T02:59:43.679Z,4.00
2023-09-04T03:02:10.364Z,4.35
2023-09-04T03:04:36.947Z,4.50
2023-09-04T03:07:03.624Z,4.33
2023-09-04T03:09:32.982Z,3.50
2023-09-04T03:12:00.392Z,3.90
2023-09-04T03:16:53.954Z,3.90
2023-09-04T03:19:20.614Z,3.63
2023-09-04T03:21:47.349Z,3.80
2023-09-04T03:24:14.002Z,3.40
2023-09-04T03:26:40.643Z,4.00
2023-09-04T03:29:07.336Z,4.07
2023-09-04T03:31:33.988Z,3.80
2023-09-04T03:34:03.735Z,4.18
2023-09-04T03:36:30.366Z,3.65
2023-09-04T03:38:57.014Z,4.30
2023-09-04T03:41:23.987Z,4.45
2023-09-04T03:43:51.033Z,4.15
2023-09-04T03:46:17.669Z,4.00
2023-09-04T03:48:44.311Z,4.07
2023-09-04T03:51:11.275Z,4.00
2023-09-04T03:53:37.899Z,3.72
2023-09-04T03:56:07.940Z,4.13
2023-09-04T03:58:34.592Z,4.03
2023-09-04T04:01:01.341Z,3.85
2023-09-04T04:03:28.231Z,3.95
2023-09-04T04:05:54.921Z,3.80
2023-09-04T04:08:21.731Z,4.43
2023-09-04T04:10:48.559Z,3.65
2023-09-04T04:13:15.162Z,3.95
2023-09-04T04:15:43.013Z,4.22
2023-09-04T04:18:11.267Z,4.07
2023-09-04T04:20:38.064Z,3.80
2023-09-04T04:23:05.455Z,3.75
2023-09-04T04:27:58.849Z,3.78
2023-09-04T04:30:25.505Z,3.80
2023-09-04T04:32:52.721Z,4.25
2023-09-04T04:35:19.663Z,4.43
2023-09-04T04:37:46.227Z,3.83
2023-09-04T04:40:13.093Z,4.13
2023-09-04T04:42:41.115Z,3.80
2023-09-04T04:45:08.548Z,4.00
2023-09-04T04:47:35.225Z,4.15
2023-09-04T04:50:01.887Z,3.88
2023-09-04T04:52:28.504Z,3.80
2023-09-04T04:54:55.125Z,3.90
2023-09-04T04:57:21.742Z,4.15
2023-09-04T04:59:48.407Z,4.50
2023-09-04T05:02:15.488Z,3.72
2023-09-04T05:04:46.981Z,3.47
2023-09-04T05:07:14.698Z,3.80
2023-09-04T05:09:41.374Z,4.30
2023-09-04T05:12:08.555Z,3.60
2023-09-04T05:14:35.250Z,3.70
2023-09-04T05:17:01.805Z,3.72
2023-09-04T05:19:31.698Z,4.10
2023-09-04T05:21:58.296Z,4.10
2023-09-04T05:24:24.892Z,3.83
2023-09-04T05:26:51.707Z,4.07
2023-09-04T05:29:18.445Z,3.90
2023-09-04T05:31:45.097Z,3.80
2023-09-04T05:34:11.836Z,3.97
2023-09-04T05:36:38.529Z,3.92
2023-09-04T05:39:05.997Z,4.35
2023-09-04T05:41:32.887Z,4.07
2023-09-04T05:43:59.579Z,3.80
2023-09-04T05:46:26.212Z,3.83
2023-09-04T05:48:52.890Z,4.15
2023-09-04T05:51:19.561Z,4.28
2023-09-04T05:53:46.168Z,3.70
2023-09-04T05:56:12.877Z,3.85
2023-09-04T05:58:47.928Z,3.30
2023-09-04T06:01:14.830Z,3.65
2023-09-04T06:03:41.994Z,4.18
2023-09-04T06:06:08.860Z,3.38
2023-09-04T06:08:35.621Z,3.63
2023-09-04T06:11:03.517Z,3.58
2023-09-04T06:13:30.949Z,3.72
2023-09-04T06:18:25.655Z,3.63
2023-09-04T06:20:52.592Z,3.15
2023-09-04T06:23:19.229Z,3.25
2023-09-04T06:25:47.437Z,3.50
2023-09-04T06:28:15.008Z,3.00
2023-09-04T06:30:41.720Z,2.80
2023-09-04T06:33:09.359Z,3.05
2023-09-04T06:35:36.260Z,2.72
2023-09-04T06:38:02.956Z,2.58
2023-09-04T06:40:29.817Z,2.85
2023-09-04T06:42:56.534Z,2.97
2023-09-04T06:45:23.190Z,2.65
2023-09-04T06:47:53.617Z,2.90
2023-09-04T06:50:20.251Z,2.70
2023-09-04T06:52:46.949Z,3.20
2023-09-04T06:55:13.572Z,3.10
2023-09-04T06:57:40.217Z,3.25
2023-09-04T07:00:08.978Z,3.20
2023-09-04T07:02:36.877Z,2.70
2023-09-04T07:05:04.440Z,3.00
2023-09-04T07:07:31.870Z,2.95
2023-09-04T07:12:25.466Z,3.03
2023-09-04T07:14:52.055Z,2.50
2023-09-04T07:17:18.750Z,2.72
2023-09-04T07:19:45.422Z,2.88
2023-09-04T07:22:12.262Z,3.10
2023-09-04T07:24:38.950Z,3.42
2023-09-04T07:27:05.679Z,3.33
2023-09-04T07:29:32.407Z,3.38
2023-09-04T07:31:59.509Z,2.80
2023-09-04T07:34:26.184Z,2.90
2023-09-04T07:36:53.457Z,2.88
2023-09-04T07:41:46.695Z,2.60
2023-09-04T07:44:13.303Z,2.70
2023-09-04T07:46:41.589Z,2.30
2023-09-04T07:49:08.356Z,2.60
2023-09-04T07:51:36.384Z,2.50
2023-09-04T07:54:04.515Z,2.45
2023-09-04T07:56:41.032Z,2.63
2023-09-04T07:59:08.599Z,2.80
2023-09-04T08:01:35.256Z,2.63
2023-09-04T08:04:05.140Z,2.85
2023-09-04T08:06:31.790Z,2.40
2023-09-04T08:08:58.411Z,2.75
2023-09-04T08:11:25.277Z,2.92
2023-09-04T08:13:52.174Z,2.78
2023-09-04T08:16:18.959Z,2.60
2023-09-04T08:18:45.754Z,2.83
2023-09-04T08:21:12.364Z,2.58
2023-09-04T08:23:39.108Z,2.70
2023-09-04T08:26:06.098Z,2.83
2023-09-04T08:28:32.950Z,2.50
2023-09-04T08:30:59.787Z,2.90
2023-09-04T08:33:27.108Z,2.50
2023-09-04T08:38:20.268Z,2.53
2023-09-04T08:40:47.156Z,2.42
2023-09-04T08:43:17.194Z,2.35
2023-09-04T08:45:44.850Z,2.35
2023-09-04T08:48:13.877Z,2.30
2023-09-04T08:50:42.913Z,2.47
2023-09-04T08:53:09.770Z,2.30
2023-09-04T08:55:36.784Z,2.20
2023-09-04T08:58:05.049Z,2.50
2023-09-04T09:00:32.712Z,2.17
2023-09-04T09:03:02.990Z,2.38
2023-09-04T09:05:34.136Z,2.10
2023-09-04T09:08:01.814Z,2.22
2023-09-04T09:10:29.636Z,2.38
2023-09-04T09:12:56.304Z,2.20
2023-09-04T09:15:22.936Z,2.30
2023-09-04T09:17:54.896Z,2.05
2023-09-04T09:20:40.131Z,2.50
2023-09-04T09:23:07.302Z,2.13
2023-09-04T09:25:35.382Z,2.65
2023-09-04T09:28:06.781Z,2.53
2023-09-04T09:30:39.052Z,2.60
2023-09-04T09:33:18.161Z,3.67
2023-09-04T09:35:45.477Z,2.70
2023-09-04T09:38:12.288Z,2.65
2023-09-04T09:40:39.439Z,3.10
2023-09-04T09:43:06.480Z,2.53
2023-09-04T09:45:35.082Z,2.90
2023-09-04T09:48:09.364Z,3.38
2023-09-04T09:50:39.277Z,2.85
2023-09-04T09:53:06.257Z,3.00
2023-09-04T09:55:36.193Z,3.10
2023-09-04T09:58:03.314Z,3.00
2023-09-04T10:00:30.467Z,3.20
2023-09-04T10:05:25.304Z,3.40
2023-09-04T10:08:00.001Z,3.53
2023-09-04T10:10:26.775Z,3.15
2023-09-04T10:12:57.667Z,3.47
2023-09-04T10:15:26.465Z,3.50
2023-09-04T10:18:11.542Z,3.47
2023-09-04T10:20:42.306Z,3.28
2023-09-04T10:23:12.235Z,3.38
2023-09-04T10:26:09.892Z,3.42
2023-09-04T10:28:52.137Z,3.20
2023-09-04T10:31:20.760Z,3.85
2023-09-04T10:33:47.890Z,3.78
2023-09-04T10:36:14.801Z,3.58
2023-09-04T10:38:43.363Z,3.50
2023-09-04T10:41:12.712Z,3.58
2023-09-04T10:43:40.865Z,3.88
2023-09-04T10:46:13.248Z,3.40
2023-09-04T10:48:47.834Z,3.72
2023-09-04T10:51:33.050Z,3.45
2023-09-04T10:54:23.484Z,3.40
2023-09-04T10:56:58.629Z,3.60
2023-09-04T10:59:26.406Z,3.75
2023-09-04T11:01:53.686Z,3.50
2023-09-04T11:04:30.684Z,3.72
2023-09-04T11:07:22.269Z,4.13
2023-09-04T11:10:05.254Z,4.25
2023-09-04T11:12:37.144Z,3.83
2023-09-04T11:15:12.883Z,3.83
2023-09-04T11:17:41.809Z,3.83
2023-09-04T11:20:10.742Z,4.13
2023-09-04T11:22:37.468Z,4.05
2023-09-04T11:25:04.549Z,3.97
2023-09-04T11:27:31.229Z,4.13
2023-09-04T11:30:02.916Z,3.80
2023-09-04T11:32:30.232Z,4.30
2023-09-04T11:37:33.096Z,4.30
2023-09-04T11:40:03.334Z,4.10
2023-09-04T11:42:32.665Z,4.18
2023-09-04T11:44:59.353Z,4.07
2023-09-04T11:47:26.420Z,3.67
2023-09-04T11:49:53.108Z,3.88
2023-09-04T11:52:27.284Z,3.50
2023-09-04T11:54:55.063Z,3.17
2023-09-04T11:57:23.176Z,3.42
2023-09-04T11:59:49.907Z,3.20
2023-09-04T12:02:16.652Z,3.53
2023-09-04T12:04:44.277Z,3.00
2023-09-04T12:07:16.358Z,3.13
2023-09-04T12:09:43.152Z,3.22
2023-09-04T12:12:09.986Z,3.50
2023-09-04T12:14:45.084Z,3.17
2023-09-04T12:17:12.801Z,3.45
2023-09-04T12:19:39.643Z,3.17
2023-09-04T12:22:16.467Z,3.20
2023-09-04T12:25:11.310Z,3.00
2023-09-04T12:27:40.514Z,3.00
2023-09-04T12:30:10.025Z,3.10
2023-09-04T12:32:38.911Z,3.00
2023-09-04T12:35:07.450Z,3.13
2023-09-04T12:37:35.585Z,2.92
2023-09-04T12:40:02.164Z,3.10
2023-09-04T12:42:28.874Z,3.00
2023-09-04T12:44:56.051Z,2.92
2023-09-04T12:47:23.115Z,3.17
2023-09-04T12:49:50.392Z,3.22
2023-09-04T12:52:17.538Z,2.92
2023-09-04T12:54:44.289Z,2.90
2023-09-04T12:57:10.890Z,2.85
2023-09-04T12:59:37.663Z,3.05
2023-09-04T13:02:04.618Z,2.80
2023-09-04T13:04:31.267Z,3.13
2023-09-04T13:06:59.583Z,2.70
2023-09-04T13:09:28.109Z,2.70
2023-09-04T13:11:57.528Z,2.97
2023-09-04T13:14:24.216Z,2.80
2023-09-04T13:16:51.105Z,2.85
2023-09-04T13:19:17.971Z,2.70
2023-09-04T13:21:44.928Z,2.80
2023-09-04T13:24:11.641Z,2.53
2023-09-04T13:26:38.319Z,2.88
2023-09-04T13:31:32.119Z,2.47
2023-09-04T13:33:58.731Z,2.33
2023-09-04T13:36:25.395Z,2.42
2023-09-04T13:38:52.009Z,2.60
2023-09-04T13:41:18.632Z,2.50
2023-09-04T13:43:45.227Z,2.40
2023-09-04T13:46:11.854Z,2.33
2023-09-04T13:48:38.462Z,2.60
2023-09-04T13:51:06.552Z,2.70
2023-09-04T13:53:33.638Z,3.33
2023-09-04T13:56:00.301Z,3.45
2023-09-04T13:58:27.198Z,3.85
2023-09-04T14:00:53.833Z,4.28
2023-09-04T14:03:20.596Z,5.28
2023-09-04T14:05:50.737Z,6.05
2023-09-04T14:08:17.792Z,6.20
2023-09-04T14:10:44.707Z,5.85
2023-09-04T14:13:11.354Z,5.82
2023-09-04T14:15:40.063Z,6.32
2023-09-04T14:18:07.240Z,6.28
2023-09-04T14:20:34.630Z,5.70
2023-09-04T14:23:01.213Z,5.88
2023-09-04T14:25:29.015Z,5.78
2023-09-04T14:27:55.645Z,6.40
2023-09-04T14:30:22.327Z,5.35
2023-09-04T14:32:49.044Z,5.65
2023-09-04T14:35:15.752Z,5.20
2023-09-04T14:37:42.965Z,5.60
2023-09-04T14:40:09.966Z,4.63
2023-09-04T14:42:37.196Z,4.90
2023-09-04T14:45:04.190Z,5.15
2023-09-04T14:47:31.284Z,4.32
2023-09-04T14:49:58.070Z,4.25
2023-09-04T14:52:25.530Z,4.00
2023-09-04T14:54:52.309Z,4.03
2023-09-04T14:57:18.875Z,4.22
2023-09-04T14:59:45.559Z,3.80
2023-09-04T15:02:12.271Z,3.85
2023-09-04T15:04:41.046Z,3.30
2023-09-04T15:07:07.910Z,3.20
2023-09-04T15:09:34.640Z,3.58
2023-09-04T15:12:01.729Z,2.92
2023-09-04T15:14:28.307Z,3.00
2023-09-04T15:16:54.901Z,3.05
2023-09-04T15:19:21.610Z,2.90
2023-09-04T15:21:48.192Z,3.50
2023-09-04T15:24:14.886Z,3.28
2023-09-04T15:26:41.599Z,2.90
2023-09-04T15:29:08.178Z,2.83
2023-09-04T15:31:36.075Z,2.83
2023-09-04T15:34:03.074Z,3.33
2023-09-04T15:36:29.706Z,2.42
2023-09-04T15:38:57.864Z,2.58
2023-09-04T15:41:25.341Z,2.40
2023-09-04T15:46:18.752Z,2.28
2023-09-04T15:48:45.391Z,2.42
2023-09-04T15:51:11.993Z,2.08
2023-09-04T15:53:39.606Z,2.30
2023-09-04T15:56:06.844Z,2.03
2023-09-04T15:58:33.546Z,2.25
2023-09-04T16:01:01.546Z,2.20
2023-09-04T16:03:28.457Z,2.17
2023-09-04T16:05:55.291Z,1.75
2023-09-04T16:08:22.239Z,2.45
2023-09-04T16:10:49.590Z,2.05
2023-09-04T16:15:44.121Z,1.90
2023-09-04T16:18:10.911Z,1.75
2023-09-04T16:20:42.116Z,1.80
2023-09-04T16:23:09.030Z,1.80
2023-09-04T16:25:35.718Z,2.10
2023-09-04T16:28:02.421Z,1.95
2023-09-04T16:30:29.125Z,1.75
2023-09-04T16:32:55.872Z,2.00
2023-09-04T16:35:22.748Z,2.22
2023-09-04T16:37:49.786Z,2.00
2023-09-04T16:40:16.429Z,2.10
2023-09-04T16:42:43.792Z,2.05
2023-09-04T16:47:37.300Z,2.05
2023-09-04T16:50:04.282Z,2.15
2023-09-04T16:52:30.904Z,2.20
2023-09-04T16:54:57.615Z,2.53
2023-09-04T16:57:24.392Z,2.85
2023-09-04T16:59:51.095Z,2.40
2023-09-04T17:02:17.764Z,3.10
2023-09-04T17:04:44.476Z,2.72
2023-09-04T17:07:11.126Z,2.85
2023-09-04T17:09:37.712Z,2.60
2023-09-04T17:12:04.581Z,2.67
2023-09-04T17:14:31.155Z,2.85
2023-09-04T17:16:57.837Z,2.97
2023-09-04T17:19:24.457Z,2.80
2023-09-04T17:21:51.059Z,3.00
2023-09-04T17:24:17.730Z,3.40
2023-09-04T17:26:44.280Z,3.22
2023-09-04T17:29:10.925Z,3.35
2023-09-04T17:31:37.758Z,3.70
2023-09-04T17:34:06.138Z,3.17
2023-09-04T17:36:32.812Z,3.70
2023-09-04T17:38:59.539Z,3.50
2023-09-04T17:41:26.098Z,3.20
2023-09-04T17:43:52.930Z,3.33
2023-09-04T17:46:19.607Z,3.65
2023-09-04T17:48:46.285Z,3.50
2023-09-04T17:51:12.915Z,3.05
2023-09-04T17:53:40.193Z,3.55
2023-09-04T17:56:06.838Z,3.40
2023-09-04T17:58:33.451Z,3.70
2023-09-04T18:01:02.365Z,3.58
2023-09-04T18:03:29.265Z,3.20
2023-09-04T18:05:55.926Z,3.30
2023-09-04T18:08:23.970Z,3.47
2023-09-04T18:10:50.890Z,3.80
2023-09-04T18:13:17.478Z,3.33
2023-09-04T18:15:44.495Z,3.43
2023-09-04T18:18:11.225Z,3.50
2023-09-04T18:20:38.067Z,3.15
2023-09-04T18:23:04.779Z,3.40
2023-09-04T18:25:31.519Z,3.58
2023-09-04T18:28:00.991Z,3.92
2023-09-04T18:30:28.772Z,3.70
2023-09-04T18:32:55.415Z,3.55
2023-09-04T18:35:26.636Z,3.72
2023-09-04T18:37:53.955Z,4.07
2023-09-04T18:40:21.558Z,3.72
2023-09-04T18:42:48.480Z,3.85
2023-09-04T18:45:15.702Z,3.70
2023-09-04T18:47:42.614Z,3.67
2023-09-04T18:50:10.007Z,3.90
2023-09-04T18:55:03.262Z,3.70
2023-09-04T18:57:30.344Z,4.30
2023-09-04T18:59:59.186Z,4.13
2023-09-04T19:02:25.974Z,3.80
2023-09-04T19:04:52.633Z,3.60
2023-09-04T19:07:21.412Z,3.90
2023-09-04T19:09:52.475Z,4.00
2023-09-04T19:12:19.210Z,3.88
2023-09-04T19:14:47.252Z,4.13
2023-09-04T19:17:16.057Z,4.10
2023-09-04T19:19:42.737Z,5.07
2023-09-04T19:22:09.421Z,5.22
2023-09-04T19:24:36.015Z,5.65
2023-09-04T19:27:03.560Z,5.30
2023-09-04T19:29:30.297Z,4.18
2023-09-04T19:31:56.973Z,3.73
2023-09-04T19:34:23.775Z,4.25
2023-09-04T19:36:50.365Z,4.30
2023-09-04T19:39:16.981Z,4.30
2023-09-04T19:41:43.617Z,4.10
2023-09-04T19:44:10.241Z,4.38
2023-09-04T19:46:36.888Z,4.00
2023-09-04T19:49:03.592Z,4.03
2023-09-04T19:51:30.224Z,4.50
2023-09-04T19:53:56.941Z,4.10
2023-09-04T19:56:23.625Z,3.70
2023-09-04T19:58:50.280Z,4.00
2023-09-04T20:01:21.397Z,3.95
2023-09-04T20:03:48.189Z,3.70
2023-09-04T20:06:17.679Z,3.85
2023-09-04T20:08:45.013Z,4.13
2023-09-04T20:11:11.652Z,4.10
2023-09-04T20:13:38.463Z,3.78
2023-09-04T20:16:05.307Z,4.07
2023-09-04T20:18:32.069Z,4.20
2023-09-04T20:20:58.658Z,4.15
2023-09-04T20:23:25.579Z,3.80
2023-09-04T20:25:52.480Z,3.78
2023-09-04T20:28:19.077Z,3.85
2023-09-04T20:30:51.838Z,3.65
2023-09-04T20:33:18.649Z,3.85
2023-09-04T20:35:46.673Z,3.90
2023-09-04T20:38:13.319Z,4.05
2023-09-04T20:40:43.130Z,3.88
2023-09-04T20:43:09.712Z,3.92
2023-09-04T20:45:36.331Z,3.78
2023-09-04T20:48:03.681Z,4.07
2023-09-04T20:52:56.963Z,3.50
2023-09-04T20:55:23.586Z,4.00
2023-09-04T20:57:50.448Z,3.83
2023-09-04T21:00:17.491Z,3.63
2023-09-04T21:02:44.197Z,4.13
2023-09-04T21:05:10.827Z,3.60
2023-09-04T21:07:37.358Z,3.80
2023-09-04T21:10:04.231Z,4.10
2023-09-04T21:12:49.621Z,3.60
2023-09-04T21:15:35.062Z,3.45
2023-09-04T21:18:20.369Z,3.25
2023-09-04T21:21:06.994Z,3.35
2023-09-04T21:23:52.690Z,3.33
2023-09-04T21:26:37.959Z,3.92
2023-09-04T21:29:23.250Z,3.20
2023-09-04T21:32:08.808Z,3.65
2023-09-04T21:34:54.307Z,2.97
2023-09-04T21:37:39.628Z,3.50
2023-09-04T21:40:25.698Z,3.30
2023-09-04T21:43:11.139Z,3.40
2023-09-04T21:45:56.124Z,3.00
2023-09-04T21:48:41.242Z,2.92
2023-09-04T21:51:26.503Z,3.20
2023-09-04T21:54:12.021Z,3.28
2023-09-04T21:56:56.947Z,2.90
2023-09-04T21:59:42.359Z,3.00
2023-09-04T22:02:27.731Z,3.15
2023-09-04T22:05:12.661Z,2.65
2023-09-04T22:07:58.286Z,2.65
2023-09-04T22:10:43.787Z,2.83
2023-09-04T22:13:29.389Z,2.78
2023-09-04T22:16:14.530Z,2.80
2023-09-04T22:19:00.127Z,2.70
2023-09-04T22:21:45.730Z,2.30
2023-09-04T22:24:31.204Z,2.35
2023-09-04T22:27:19.310Z,2.70
2023-09-04T22:30:04.919Z,2.65
2023-09-04T22:32:49.943Z,2.35
2023-09-04T22:35:35.115Z,2.28
2023-09-04T22:38:27.843Z,2.65
2023-09-04T22:41:13.400Z,2.28
2023-09-04T22:43:58.882Z,2.72
2023-09-04T22:46:44.137Z,2.45
2023-09-04T22:49:29.597Z,2.80
2023-09-04T22:52:15.147Z,2.90
2023-09-04T22:55:00.367Z,2.20
2023-09-04T22:57:45.420Z,2.10
2023-09-04T23:00:31.443Z,2.50
2023-09-04T23:03:16.677Z,2.70
2023-09-04T23:06:02.166Z,2.47
2023-09-04T23:08:46.985Z,2.17
2023-09-04T23:11:31.976Z,2.40
2023-09-04T23:14:16.938Z,2.20
2023-09-04T23:17:03.918Z,2.25
2023-09-04T23:19:49.488Z,2.42
2023-09-04T23:22:16.091Z,3.03
2023-09-04T23:24:43.837Z,2.00
2023-09-04T23:27:15.864Z,2.00
2023-09-04T23:29:43.600Z,2.13
2023-09-04T23:32:10.869Z,2.00
2023-09-04T23:37:16.079Z,1.95
2023-09-04T23:40:03.186Z,1.92
2023-09-04T23:45:21.274Z,2.03
2023-09-04T23:47:51.972Z,2.00
2023-09-04T23:50:24.305Z,2.15
2023-09-04T23:52:55.917Z,1.67
2023-09-04T23:55:24.770Z,1.58
2023-09-04T23:57:51.852Z,1.75
